createdAt,value
2022-08-22T00:04:17.893Z,4.20
2022-08-22T00:14:45.490Z,3.90
2022-08-22T00:25:12.456Z,3.10
2022-08-22T00:35:45.569Z,4.60
2022-08-22T00:46:10.602Z,3.70
2022-08-22T00:56:36.403Z,6.30
2022-08-22T01:07:01.467Z,4.20
2022-08-22T01:17:16.736Z,4.80
2022-08-22T01:27:51.999Z,4.00
2022-08-22T01:38:27.041Z,4.90
2022-08-22T01:48:50.354Z,4.80
2022-08-22T01:59:10.932Z,5.50
2022-08-22T02:09:27.473Z,4.10
2022-08-22T02:19:42.244Z,3.80
2022-08-22T02:29:55.149Z,4.20
2022-08-22T02:40:14.101Z,3.80
2022-08-22T02:50:27.826Z,5.00
2022-08-22T03:01:00.372Z,5.10
2022-08-22T03:11:24.874Z,6.70
2022-08-22T03:21:44.569Z,6.40
2022-08-22T03:32:08.892Z,7.60
2022-08-22T03:42:53.162Z,7.50
2022-08-22T03:53:15.214Z,7.10
2022-08-22T04:03:54.063Z,6.90
2022-08-22T04:14:29.453Z,5.20
2022-08-22T04:24:44.192Z,7.00
2022-08-22T04:35:11.223Z,7.50
2022-08-22T04:45:38.087Z,6.40
2022-08-22T04:55:53.321Z,6.80
2022-08-22T05:06:00.863Z,4.90
2022-08-22T05:16:13.945Z,6.50
2022-08-22T05:26:20.752Z,9.20
2022-08-22T05:36:36.401Z,20.10
2022-08-22T05:46:45.294Z,23.60
2022-08-22T05:56:55.998Z,22.80
2022-08-22T06:07:19.676Z,16.30
2022-08-22T06:17:43.537Z,13.40
2022-08-22T06:27:50.592Z,19.30
2022-08-22T06:38:00.129Z,17.50
2022-08-22T06:48:06.838Z,9.30
2022-08-22T06:58:15.568Z,12.40
2022-08-22T07:08:23.469Z,17.50
2022-08-22T07:18:31.043Z,13.20
2022-08-22T07:28:51.241Z,12.90
2022-08-22T07:39:26.556Z,18.30
2022-08-22T07:49:40.945Z,15.20
2022-08-22T07:59:57.877Z,18.30
2022-08-22T08:10:12.792Z,16.70
2022-08-22T08:20:23.070Z,16.30
2022-08-22T08:30:44.594Z,15.50
2022-08-22T08:41:02.826Z,17.10
2022-08-22T08:51:18.085Z,12.50
2022-08-22T09:01:59.510Z,18.90
2022-08-22T09:12:31.412Z,10.80
2022-08-22T09:23:05.234Z,11.30
2022-08-22T09:33:21.575Z,10.80
2022-08-22T09:43:48.981Z,10.70
2022-08-22T09:54:32.691Z,11.60
2022-08-22T10:04:58.380Z,14.00
2022-08-22T10:15:06.963Z,11.20
2022-08-22T10:25:34.768Z,12.60
2022-08-22T10:35:51.940Z,11.30
2022-08-22T10:46:06.749Z,11.60
2022-08-22T10:56:38.058Z,13.50
2022-08-22T11:07:18.971Z,13.50
2022-08-22T11:18:15.936Z,11.80
2022-08-22T11:28:34.160Z,19.50
2022-08-22T11:38:59.073Z,15.10
2022-08-22T11:49:31.674Z,14.60
2022-08-22T12:00:00.412Z,14.10
2022-08-22T12:10:13.717Z,16.65
2022-08-22T12:20:38.500Z,14.30
2022-08-22T12:30:47.741Z,11.20
2022-08-22T12:41:34.668Z,12.00
2022-08-22T12:52:12.783Z,15.30
2022-08-22T13:02:25.181Z,17.10
2022-08-22T13:12:40.089Z,11.60
2022-08-22T13:22:51.238Z,9.80
2022-08-22T13:33:12.613Z,12.40
2022-08-22T13:43:56.304Z,13.20
2022-08-22T13:54:12.172Z,15.00
2022-08-22T14:04:28.762Z,16.20
2022-08-22T14:14:47.231Z,16.40
2022-08-22T14:24:59.392Z,18.60
2022-08-22T14:35:23.095Z,24.90
2022-08-22T14:45:33.861Z,15.90
2022-08-22T14:55:44.037Z,16.80
2022-08-22T15:06:03.289Z,15.90
2022-08-22T15:16:23.919Z,18.20
2022-08-22T15:26:34.735Z,14.80
2022-08-22T15:37:09.883Z,15.40
2022-08-22T15:47:31.624Z,14.40
2022-08-22T15:57:44.435Z,15.80
2022-08-22T16:07:58.096Z,20.60
2022-08-22T16:18:04.573Z,17.90
2022-08-22T16:28:56.931Z,24.10
2022-08-22T16:38:58.812Z,18.10
2022-08-22T16:49:05.451Z,15.10
2022-08-22T16:59:23.783Z,14.90
2022-08-22T17:09:45.504Z,16.60
2022-08-22T17:20:10.543Z,14.80
2022-08-22T17:30:38.002Z,15.00
2022-08-22T17:41:06.318Z,14.10
2022-08-22T17:51:17.619Z,15.35
2022-08-22T18:01:45.688Z,16.00
2022-08-22T18:12:31.120Z,16.20
2022-08-22T18:22:53.460Z,15.10
2022-08-22T18:33:05.189Z,15.50
2022-08-22T18:43:25.340Z,14.30
2022-08-22T18:53:40.459Z,15.80
2022-08-22T19:03:56.237Z,15.50
2022-08-22T19:14:19.068Z,16.10
2022-08-22T19:24:28.324Z,16.30
2022-08-22T19:34:41.607Z,16.00
2022-08-22T19:45:04.307Z,14.80
2022-08-22T19:55:23.164Z,15.20
2022-08-22T20:05:56.937Z,14.30
2022-08-22T20:16:22.532Z,16.60
2022-08-22T20:26:29.041Z,15.90
2022-08-22T20:36:35.435Z,16.60
2022-08-22T20:46:47.866Z,15.00
2022-08-22T20:57:03.162Z,15.00
2022-08-22T21:07:09.492Z,13.60
2022-08-22T21:17:34.333Z,17.10
2022-08-22T21:27:46.837Z,15.50
2022-08-22T21:37:53.372Z,15.50
2022-08-22T21:48:00.889Z,14.90
2022-08-22T21:58:07.346Z,13.30
2022-08-22T22:08:13.743Z,12.90
2022-08-22T22:18:24.075Z,13.10
2022-08-22T22:28:41.608Z,11.60
2022-08-22T22:38:48.584Z,10.40
2022-08-22T22:48:59.070Z,10.80
2022-08-22T22:59:12.807Z,10.70
2022-08-22T23:09:20.114Z,9.60
2022-08-22T23:19:27.770Z,11.10
2022-08-22T23:29:34.377Z,10.70
2022-08-22T23:39:40.751Z,10.10
2022-08-22T23:49:47.385Z,11.10
2022-08-22T23:59:57.936Z,10.90
